This is the latest recevied weather packets stored in our database for station/object IU2PLZ-10. If no packets are shown the sender has not sent any weather packets the latest 10 day(s).
| Time | Temp. | Humidity | Pressure | Rain* | Wind** | Luminosity | Snow |
|---|---|---|---|---|---|---|---|
| 1788495868 | 27.22° C | 71% | 968.1 hPa | - | - | - | - |
| 1788494968 | 27.22° C | 71% | 968 hPa | - | - | - | - |
| 1788494068 | 27.22° C | 71% | 968.1 hPa | - | - | - | - |
| 1788493168 | 27.22° C | 71% | 968 hPa | - | - | - | - |
| 1788492268 | 26.67° C | 70% | 967.2 hPa | - | - | - | - |
| 1788491367 | 27.22° C | 70% | 968.1 hPa | - | - | - | - |
| 1788490465 | 26.67° C | 71% | 967.6 hPa | - | - | - | - |
| 1788489565 | 27.22° C | 71% | 968.2 hPa | - | - | - | - |
| 1788488665 | 27.22° C | 71% | 968.2 hPa | - | - | - | - |
| 1788487770 | 27.22° C | 71% | 968.1 hPa | - | - | - | - |
| 1788486865 | 26.67° C | 71% | 967.4 hPa | - | - | - | - |
| 1788485969 | 27.22° C | 71% | 967.9 hPa | - | - | - | - |
| 1788485064 | 27.22° C | 71% | 968.3 hPa | - | - | - | - |
| 1788484169 | 27.78° C | 71% | 968.3 hPa | - | - | - | - |
| 1788483264 | 27.78° C | 71% | 968.3 hPa | - | - | - | - |
| 1788482364 | 27.22° C | 70% | 967.4 hPa | - | - | - | - |
| 1788481471 | 27.22° C | 70% | 967.6 hPa | - | - | - | - |
| 1788480564 | 27.22° C | 69% | 967.6 hPa | - | - | - | - |
| 1788479663 | 27.78° C | 69% | 968.2 hPa | - | - | - | - |
| 1788477864 | 27.22° C | 69% | 968.5 hPa | - | - | - | - |
| 1788476959 | 27.22° C | 69% | 968.5 hPa | - | - | - | - |
| 1788476058 | 27.22° C | 69% | 968.6 hPa | - | - | - | - |
| 1788475158 | 27.78° C | 69% | 968.8 hPa | - | - | - | - |
| 1788474258 | 27.22° C | 68% | 968.1 hPa | - | - | - | - |
| 1788473358 | 28.33° C | 67% | 969.1 hPa | - | - | - | - |
* Rain since midnight (hover to see other rain measurements)
** Current wind speed in m/s (hover to see current wind gust speed)